createdAt,value
2017-04-21T00:00:53.757Z,1023.38
2017-04-21T00:01:54.365Z,1023.37
2017-04-21T00:02:54.974Z,1023.43
2017-04-21T00:03:55.561Z,1023.40
2017-04-21T00:04:56.212Z,1023.40
2017-04-21T00:05:56.813Z,1023.39
2017-04-21T00:06:57.409Z,1023.40
2017-04-21T00:07:58.014Z,1023.34
2017-04-21T00:08:58.600Z,1023.33
2017-04-21T00:09:59.191Z,1023.38
2017-04-21T00:10:59.791Z,1023.34
2017-04-21T00:12:00.385Z,1023.33
2017-04-21T00:13:00.976Z,1023.31
2017-04-21T00:14:01.576Z,1023.29
2017-04-21T00:15:02.182Z,1023.31
2017-04-21T00:16:02.773Z,1023.29
2017-04-21T00:17:03.364Z,1023.31
2017-04-21T00:18:03.958Z,1023.30
2017-04-21T00:19:04.548Z,1023.28
2017-04-21T00:20:05.148Z,1023.25
2017-04-21T00:21:05.747Z,1023.23
2017-04-21T00:22:06.338Z,1023.20
2017-04-21T00:23:06.938Z,1023.16
2017-04-21T00:24:07.544Z,1023.18
2017-04-21T00:25:08.136Z,1023.22
2017-04-21T00:26:08.743Z,1023.17
2017-04-21T00:27:09.339Z,1023.17
2017-04-21T00:28:09.948Z,1023.14
2017-04-21T00:29:10.554Z,1023.09
2017-04-21T00:30:11.230Z,1023.10
2017-04-21T00:31:11.743Z,1023.12
2017-04-21T00:32:12.341Z,1023.10
2017-04-21T00:33:12.938Z,1023.12
2017-04-21T00:34:13.544Z,1023.13
2017-04-21T00:35:14.186Z,1023.13
2017-04-21T00:36:14.811Z,1023.12
2017-04-21T00:37:15.413Z,1023.17
2017-04-21T00:38:16.012Z,1023.13
2017-04-21T00:39:16.615Z,1023.17
2017-04-21T00:40:17.258Z,1023.15
2017-04-21T00:41:17.864Z,1023.19
2017-04-21T00:42:18.462Z,1023.15
2017-04-21T00:43:19.052Z,1023.17
2017-04-21T00:44:19.645Z,1023.18
2017-04-21T00:45:20.302Z,1023.18
2017-04-21T00:46:20.889Z,1023.19
2017-04-21T00:47:21.484Z,1023.17
2017-04-21T00:48:22.088Z,1023.16
2017-04-21T00:49:22.676Z,1023.15
2017-04-21T00:50:23.265Z,1023.15
2017-04-21T00:51:23.861Z,1023.18
2017-04-21T00:52:24.449Z,1023.15
2017-04-21T00:53:25.051Z,1023.15
2017-04-21T00:54:25.655Z,1023.15
2017-04-21T00:55:26.252Z,1023.10
2017-04-21T00:56:26.858Z,1023.09
2017-04-21T00:57:27.450Z,1023.10
2017-04-21T00:58:28.051Z,1023.10
2017-04-21T00:59:28.660Z,1023.09
2017-04-21T01:00:29.260Z,1023.11
2017-04-21T01:01:29.866Z,1023.09
2017-04-21T01:02:30.467Z,1023.13
2017-04-21T01:03:31.068Z,1023.13
2017-04-21T01:04:31.673Z,1023.10
2017-04-21T01:05:32.326Z,1023.09
2017-04-21T01:06:32.935Z,1023.09
2017-04-21T01:07:33.537Z,1023.06
2017-04-21T01:08:34.142Z,1023.06
2017-04-21T01:09:34.747Z,1023.04
2017-04-21T01:10:35.341Z,1023.09
2017-04-21T01:11:35.937Z,1023.07
2017-04-21T01:12:36.524Z,1023.11
2017-04-21T01:13:37.129Z,1023.11
2017-04-21T01:14:37.736Z,1023.14
2017-04-21T01:15:38.326Z,1023.14
2017-04-21T01:16:38.925Z,1023.09
2017-04-21T01:17:39.527Z,1023.10
2017-04-21T01:18:40.131Z,1023.08
2017-04-21T01:19:40.729Z,1023.09
2017-04-21T01:20:41.329Z,1023.08
2017-04-21T01:21:41.928Z,1023.06
2017-04-21T01:22:42.532Z,1023.04
2017-04-21T01:23:43.123Z,1023.07
2017-04-21T01:24:43.727Z,1023.05
2017-04-21T01:25:44.330Z,1023.08
2017-04-21T01:26:44.933Z,1023.07
2017-04-21T01:27:45.537Z,1023.06
2017-04-21T01:28:46.127Z,1023.09
2017-04-21T01:29:46.730Z,1023.09
2017-04-21T01:30:47.336Z,1023.09
2017-04-21T01:31:47.926Z,1023.07
2017-04-21T01:32:48.516Z,1023.03
2017-04-21T01:33:49.125Z,1023.05
2017-04-21T01:34:49.732Z,1023.05
2017-04-21T01:35:50.325Z,1023.03
2017-04-21T01:36:50.912Z,1023.01
2017-04-21T01:37:51.516Z,1023.01
2017-04-21T01:38:52.124Z,1023.01
2017-04-21T01:39:52.733Z,1023.01
2017-04-21T01:40:53.340Z,1023.04
2017-04-21T01:41:53.927Z,1023.00
2017-04-21T01:42:54.527Z,1022.98
2017-04-21T01:43:55.128Z,1022.99
2017-04-21T01:44:55.729Z,1022.97
2017-04-21T01:45:56.370Z,1022.97
2017-04-21T01:46:56.973Z,1022.96
2017-04-21T01:47:57.577Z,1022.97
2017-04-21T01:48:58.172Z,1022.91
2017-04-21T01:49:58.767Z,1022.90
2017-04-21T01:50:59.359Z,1022.95
2017-04-21T01:51:59.953Z,1022.95
2017-04-21T01:53:00.555Z,1022.93
2017-04-21T01:54:01.160Z,1022.91
2017-04-21T01:55:01.763Z,1022.92
2017-04-21T01:56:02.358Z,1022.92
2017-04-21T01:57:02.965Z,1022.92
2017-04-21T01:58:03.557Z,1022.88
2017-04-21T01:59:04.150Z,1022.85
2017-04-21T02:00:04.757Z,1022.81
2017-04-21T02:01:05.347Z,1022.81
2017-04-21T02:02:05.952Z,1022.76
2017-04-21T02:03:06.559Z,1022.78
2017-04-21T02:04:07.161Z,1022.74
2017-04-21T02:05:07.753Z,1022.70
2017-04-21T02:06:08.394Z,1022.73
2017-04-21T02:07:08.998Z,1022.69
2017-04-21T02:08:09.606Z,1022.70
2017-04-21T02:09:10.209Z,1022.65
2017-04-21T02:10:10.810Z,1022.66
2017-04-21T02:11:11.458Z,1022.65
2017-04-21T02:12:12.059Z,1022.61
2017-04-21T02:13:12.662Z,1022.67
2017-04-21T02:14:13.264Z,1022.69
2017-04-21T02:15:13.865Z,1022.66
2017-04-21T02:16:14.461Z,1022.66
2017-04-21T02:17:15.062Z,1022.65
2017-04-21T02:18:15.652Z,1022.66
2017-04-21T02:19:16.249Z,1022.68
2017-04-21T02:20:16.847Z,1022.62
2017-04-21T02:21:17.439Z,1022.62
2017-04-21T02:22:18.045Z,1022.64
2017-04-21T02:23:18.651Z,1022.62
2017-04-21T02:24:19.243Z,1022.61
2017-04-21T02:25:19.832Z,1022.57
2017-04-21T02:26:20.474Z,1022.56
2017-04-21T02:27:21.062Z,1022.58
2017-04-21T02:28:21.652Z,1022.57
2017-04-21T02:29:22.257Z,1022.55
2017-04-21T02:30:22.857Z,1022.50
2017-04-21T02:31:23.464Z,1022.48
2017-04-21T02:32:24.057Z,1022.46
2017-04-21T02:33:24.662Z,1022.48
2017-04-21T02:34:25.252Z,1022.46
2017-04-21T02:35:25.899Z,1022.45
2017-04-21T02:36:26.501Z,1022.43
2017-04-21T02:37:27.112Z,1022.42
2017-04-21T02:38:27.715Z,1022.41
2017-04-21T02:39:28.318Z,1022.41
2017-04-21T02:40:28.923Z,1022.46
2017-04-21T02:41:29.528Z,1022.42
2017-04-21T02:42:30.120Z,1022.49
2017-04-21T02:43:30.726Z,1022.48
2017-04-21T02:44:31.378Z,1022.51
2017-04-21T02:45:31.974Z,1022.49
2017-04-21T02:46:32.562Z,1022.50
2017-04-21T02:47:33.160Z,1022.53
2017-04-21T02:48:33.765Z,1022.52
2017-04-21T02:49:34.353Z,1022.51
2017-04-21T02:50:34.955Z,1022.48
2017-04-21T02:51:35.558Z,1022.45
2017-04-21T02:52:36.165Z,1022.48
2017-04-21T02:53:36.767Z,1022.49
2017-04-21T02:54:37.370Z,1022.46
2017-04-21T02:55:37.972Z,1022.49
2017-04-21T02:56:38.606Z,1022.47
2017-04-21T02:57:39.180Z,1022.49
2017-04-21T02:58:39.769Z,1022.45
2017-04-21T02:59:40.477Z,1022.51
2017-04-21T03:00:41.085Z,1022.49
2017-04-21T03:01:41.683Z,1022.47
2017-04-21T03:02:42.287Z,1022.47
2017-04-21T03:03:42.890Z,1022.45
2017-04-21T03:04:43.544Z,1022.39
2017-04-21T03:05:44.145Z,1022.45
2017-04-21T03:06:44.732Z,1022.43
2017-04-21T03:07:45.325Z,1022.44
2017-04-21T03:08:45.932Z,1022.41
2017-04-21T03:09:46.536Z,1022.36
2017-04-21T03:10:47.128Z,1022.40
2017-04-21T03:11:47.718Z,1022.37
2017-04-21T03:12:48.323Z,1022.41
2017-04-21T03:13:48.929Z,1022.39
2017-04-21T03:14:49.536Z,1022.41
2017-04-21T03:15:50.126Z,1022.41
2017-04-21T03:16:50.726Z,1022.41
2017-04-21T03:17:51.330Z,1022.40
2017-04-21T03:18:51.935Z,1022.40
2017-04-21T03:19:52.574Z,1022.41
2017-04-21T03:20:53.164Z,1022.39
2017-04-21T03:21:53.765Z,1022.39
2017-04-21T03:22:54.366Z,1022.38
2017-04-21T03:23:54.965Z,1022.32
2017-04-21T03:24:55.618Z,1022.28
2017-04-21T03:25:56.222Z,1022.29
2017-04-21T03:26:56.821Z,1022.24
2017-04-21T03:27:57.427Z,1022.19
2017-04-21T03:28:58.023Z,1022.17
2017-04-21T03:29:58.673Z,1022.22
2017-04-21T03:30:59.266Z,1022.24
2017-04-21T03:31:59.859Z,1022.25
2017-04-21T03:33:00.463Z,1022.27
2017-04-21T03:34:01.055Z,1022.33
2017-04-21T03:35:01.659Z,1022.32
2017-04-21T03:36:02.266Z,1022.31
2017-04-21T03:37:02.874Z,1022.27
2017-04-21T03:38:03.476Z,1022.28
2017-04-21T03:39:04.086Z,1022.24
2017-04-21T03:40:04.729Z,1022.20
2017-04-21T03:41:05.334Z,1022.23
2017-04-21T03:42:05.924Z,1022.20
2017-04-21T03:43:06.529Z,1022.15
2017-04-21T03:44:07.129Z,1022.16
2017-04-21T03:45:07.773Z,1022.14
2017-04-21T03:46:08.373Z,1022.10
2017-04-21T03:47:08.966Z,1022.10
2017-04-21T03:48:09.560Z,1022.09
2017-04-21T03:49:10.157Z,1022.09
2017-04-21T03:50:10.810Z,1022.11
2017-04-21T03:51:11.416Z,1022.08
2017-04-21T03:52:12.007Z,1022.07
2017-04-21T03:53:12.610Z,1022.06
2017-04-21T03:54:13.212Z,1022.06
2017-04-21T03:55:13.806Z,1022.05
2017-04-21T03:56:14.397Z,1022.07
2017-04-21T03:57:14.987Z,1022.06
2017-04-21T03:58:15.583Z,1022.10
2017-04-21T03:59:16.180Z,1022.10
2017-04-21T04:00:16.783Z,1022.08
2017-04-21T04:01:17.370Z,1022.11
2017-04-21T04:02:17.980Z,1022.07
2017-04-21T04:03:18.586Z,1022.06
2017-04-21T04:04:19.176Z,1022.13
2017-04-21T04:05:19.823Z,1022.09
2017-04-21T04:06:20.433Z,1022.08
2017-04-21T04:07:21.029Z,1022.11
2017-04-21T04:08:21.638Z,1022.04
2017-04-21T04:09:22.250Z,1022.05
2017-04-21T04:10:22.906Z,1022.07
2017-04-21T04:11:23.505Z,1022.09
2017-04-21T04:12:24.111Z,1022.05
2017-04-21T04:13:24.705Z,1022.04
2017-04-21T04:14:25.309Z,1022.03
2017-04-21T04:15:25.956Z,1022.02
2017-04-21T04:16:26.554Z,1022.02
2017-04-21T04:17:27.162Z,1022.03
2017-04-21T04:18:27.767Z,1022.06
2017-04-21T04:19:28.380Z,1022.06
2017-04-21T04:20:28.984Z,1022.03
2017-04-21T04:21:29.577Z,1022.05
2017-04-21T04:22:30.181Z,1022.03
2017-04-21T04:23:30.777Z,1022.05
2017-04-21T04:24:31.385Z,1022.04
2017-04-21T04:25:32.035Z,1022.05
2017-04-21T04:26:32.644Z,1022.01
2017-04-21T04:27:33.253Z,1022.02
2017-04-21T04:28:33.849Z,1022.05
2017-04-21T04:29:34.453Z,1022.05
2017-04-21T04:30:35.114Z,1022.04
2017-04-21T04:31:35.729Z,1021.99
2017-04-21T04:32:36.340Z,1022.00
2017-04-21T04:33:36.950Z,1021.97
2017-04-21T04:34:37.555Z,1021.95
2017-04-21T04:35:38.169Z,1021.96
2017-04-21T04:36:38.777Z,1021.95
2017-04-21T04:37:39.382Z,1021.92
2017-04-21T04:38:39.992Z,1021.91
2017-04-21T04:39:40.601Z,1021.91
2017-04-21T04:40:41.212Z,1021.90
2017-04-21T04:41:41.825Z,1021.93
2017-04-21T04:42:42.423Z,1021.96
2017-04-21T04:43:43.020Z,1021.94
2017-04-21T04:44:43.631Z,1021.94
2017-04-21T04:45:44.287Z,1021.93
2017-04-21T04:46:44.892Z,1021.95
2017-04-21T04:47:45.501Z,1021.96
2017-04-21T04:48:46.102Z,1021.94
2017-04-21T04:49:46.697Z,1021.93
2017-04-21T04:50:47.309Z,1021.92
2017-04-21T04:51:47.918Z,1021.95
2017-04-21T04:52:48.531Z,1021.95
2017-04-21T04:53:49.134Z,1021.95
2017-04-21T04:54:49.728Z,1021.94
2017-04-21T04:55:50.383Z,1021.94
2017-04-21T04:56:50.985Z,1021.93
2017-04-21T04:57:51.582Z,1021.91
2017-04-21T04:58:52.180Z,1021.93
2017-04-21T04:59:52.790Z,1021.95
2017-04-21T05:00:53.407Z,1021.94
2017-04-21T05:01:54.002Z,1021.95
2017-04-21T05:02:54.603Z,1021.93
2017-04-21T05:03:55.211Z,1021.89
2017-04-21T05:04:55.804Z,1021.92
2017-04-21T05:05:56.457Z,1021.92
2017-04-21T05:06:57.069Z,1021.91
2017-04-21T05:07:57.683Z,1021.96
2017-04-21T05:08:58.291Z,1021.96
2017-04-21T05:09:58.904Z,1021.97
2017-04-21T05:10:59.552Z,1021.99
2017-04-21T05:12:00.164Z,1022.00
2017-04-21T05:13:00.761Z,1021.99
2017-04-21T05:14:01.359Z,1021.95
2017-04-21T05:15:01.957Z,1021.97
2017-04-21T05:16:02.613Z,1021.93
2017-04-21T05:17:03.212Z,1021.90
2017-04-21T05:18:03.826Z,1021.89
2017-04-21T05:19:04.440Z,1021.90
2017-04-21T05:20:05.051Z,1021.89
2017-04-21T05:21:05.709Z,1021.90
2017-04-21T05:22:06.307Z,1021.92
2017-04-21T05:23:06.902Z,1021.90
2017-04-21T05:24:07.499Z,1021.90
2017-04-21T05:25:08.113Z,1021.92
2017-04-21T05:26:08.757Z,1021.89
2017-04-21T05:27:09.358Z,1021.89
2017-04-21T05:28:09.967Z,1021.94
2017-04-21T05:29:10.564Z,1021.91
2017-04-21T05:30:11.167Z,1021.91
2017-04-21T05:31:11.823Z,1021.91
2017-04-21T05:32:12.427Z,1021.91
2017-04-21T05:33:13.042Z,1021.94
2017-04-21T05:34:13.678Z,1021.97
2017-04-21T05:35:14.268Z,1021.95
2017-04-21T05:36:14.930Z,1021.99
2017-04-21T05:37:15.541Z,1021.97
2017-04-21T05:38:16.144Z,1021.94
2017-04-21T05:39:16.754Z,1022.00
2017-04-21T05:40:17.352Z,1021.98
2017-04-21T05:41:18.014Z,1022.01
2017-04-21T05:42:18.625Z,1022.02
2017-04-21T05:43:19.233Z,1022.03
2017-04-21T05:44:19.830Z,1022.01
2017-04-21T05:45:20.442Z,1022.08
2017-04-21T05:46:21.056Z,1022.03
2017-04-21T05:47:21.666Z,1022.03
2017-04-21T05:48:22.283Z,1022.06
2017-04-21T05:49:22.887Z,1022.00
2017-04-21T05:50:23.485Z,1022.00
2017-04-21T05:51:24.095Z,1022.03
2017-04-21T05:52:24.710Z,1022.04
2017-04-21T05:53:25.320Z,1022.03
2017-04-21T05:54:25.935Z,1021.99
2017-04-21T05:55:26.543Z,1022.00
2017-04-21T05:56:27.151Z,1021.98
2017-04-21T05:57:27.750Z,1022.03
2017-04-21T05:58:28.363Z,1022.06
2017-04-21T05:59:28.988Z,1022.10
2017-04-21T06:00:29.647Z,1022.06
2017-04-21T06:01:30.264Z,1022.07
2017-04-21T06:02:30.871Z,1022.07
2017-04-21T06:03:31.480Z,1022.05
2017-04-21T06:04:32.089Z,1022.07
2017-04-21T06:05:32.706Z,1022.07
2017-04-21T06:06:33.301Z,1022.06
2017-04-21T06:07:33.901Z,1022.02
2017-04-21T06:08:34.518Z,1022.03
2017-04-21T06:09:35.120Z,1022.05
2017-04-21T06:10:35.775Z,1022.04
2017-04-21T06:11:36.384Z,1022.05
2017-04-21T06:12:36.995Z,1022.07
2017-04-21T06:13:37.590Z,1022.05
2017-04-21T06:14:38.198Z,1022.06
2017-04-21T06:15:38.810Z,1022.11
2017-04-21T06:16:39.432Z,1022.10
2017-04-21T06:17:40.055Z,1022.09
2017-04-21T06:18:40.663Z,1022.10
2017-04-21T06:19:41.262Z,1022.10
2017-04-21T06:20:41.861Z,1022.10
2017-04-21T06:21:42.470Z,1022.08
2017-04-21T06:22:43.073Z,1022.09
2017-04-21T06:23:43.667Z,1022.05
2017-04-21T06:24:44.326Z,1022.08
2017-04-21T06:25:44.933Z,1022.06
2017-04-21T06:26:45.545Z,1022.04
2017-04-21T06:27:46.144Z,1022.02
2017-04-21T06:28:46.752Z,1022.01
2017-04-21T06:29:47.417Z,1022.02
2017-04-21T06:30:48.028Z,1021.97
2017-04-21T06:31:48.630Z,1022.01
2017-04-21T06:32:49.246Z,1022.02
2017-04-21T06:33:49.864Z,1022.02
2017-04-21T06:34:50.467Z,1022.01
2017-04-21T06:35:51.078Z,1021.99
2017-04-21T06:36:51.679Z,1022.00
2017-04-21T06:37:52.278Z,1021.96
2017-04-21T06:38:52.884Z,1021.97
2017-04-21T06:39:53.487Z,1021.95
2017-04-21T06:40:54.096Z,1021.97
2017-04-21T06:41:54.701Z,1021.98
2017-04-21T06:42:55.309Z,1021.96
2017-04-21T06:43:55.908Z,1022.01
2017-04-21T06:44:56.573Z,1022.02
2017-04-21T06:45:57.195Z,1022.02
2017-04-21T06:46:57.810Z,1022.00
2017-04-21T06:47:58.418Z,1022.06
2017-04-21T06:48:59.030Z,1022.05
2017-04-21T06:49:59.680Z,1022.00
2017-04-21T06:51:00.293Z,1021.99
2017-04-21T06:52:00.896Z,1021.96
2017-04-21T06:53:01.510Z,1021.94
2017-04-21T06:54:02.122Z,1021.97
2017-04-21T06:55:02.772Z,1021.95
2017-04-21T06:56:03.383Z,1021.95
2017-04-21T06:57:03.999Z,1021.96
2017-04-21T06:58:04.606Z,1021.94
2017-04-21T06:59:05.221Z,1021.94
2017-04-21T07:00:05.838Z,1021.96
2017-04-21T07:01:06.454Z,1021.94
2017-04-21T07:02:07.059Z,1021.95
2017-04-21T07:03:07.651Z,1021.95
2017-04-21T07:04:08.260Z,1021.89
2017-04-21T07:05:08.912Z,1021.92
2017-04-21T07:06:09.513Z,1021.95
2017-04-21T07:07:10.113Z,1021.94
2017-04-21T07:08:10.728Z,1021.89
2017-04-21T07:09:11.342Z,1021.89
2017-04-21T07:10:11.955Z,1021.91
2017-04-21T07:11:12.570Z,1021.90
2017-04-21T07:12:13.185Z,1021.92
2017-04-21T07:13:13.796Z,1021.90
2017-04-21T07:14:14.402Z,1021.89
2017-04-21T07:15:15.015Z,1021.87
2017-04-21T07:16:15.628Z,1021.88
2017-04-21T07:17:16.241Z,1021.87
2017-04-21T07:18:16.859Z,1021.92
2017-04-21T07:19:17.472Z,1021.91
2017-04-21T07:20:18.134Z,1021.89
2017-04-21T07:21:18.748Z,1021.89
2017-04-21T07:22:19.362Z,1021.90
2017-04-21T07:23:19.966Z,1021.94
2017-04-21T07:24:20.580Z,1021.88
2017-04-21T07:25:21.232Z,1021.91
2017-04-21T07:26:21.834Z,1021.89
2017-04-21T07:27:22.445Z,1021.84
2017-04-21T07:28:23.049Z,1021.93
2017-04-21T07:29:23.649Z,1021.89
2017-04-21T07:30:24.291Z,1021.88
2017-04-21T07:31:24.908Z,1021.89
2017-04-21T07:32:25.521Z,1021.86
2017-04-21T07:33:26.137Z,1021.87
2017-04-21T07:34:26.756Z,1021.83
2017-04-21T07:35:27.425Z,1021.81
2017-04-21T07:36:28.025Z,1021.83
2017-04-21T07:37:28.623Z,1021.81
2017-04-21T07:38:29.226Z,1021.85
2017-04-21T07:39:29.829Z,1021.85
2017-04-21T07:40:30.435Z,1021.83
2017-04-21T07:41:31.045Z,1021.83
2017-04-21T07:42:31.659Z,1021.86
2017-04-21T07:43:32.285Z,1021.84
2017-04-21T07:44:32.901Z,1021.79
2017-04-21T07:45:33.504Z,1021.87
2017-04-21T07:46:34.120Z,1021.85
2017-04-21T07:47:34.736Z,1021.91
2017-04-21T07:48:35.344Z,1021.93
2017-04-21T07:49:35.958Z,1021.98
2017-04-21T07:50:36.624Z,1021.98
2017-04-21T07:51:37.232Z,1022.01
2017-04-21T07:52:37.834Z,1021.98
2017-04-21T07:53:38.449Z,1022.02
2017-04-21T07:54:39.060Z,1022.00
2017-04-21T07:55:39.672Z,1022.02
2017-04-21T07:56:40.275Z,1021.97
2017-04-21T07:57:40.884Z,1022.00
2017-04-21T07:58:41.502Z,1021.94
2017-04-21T07:59:42.106Z,1021.96
2017-04-21T08:00:42.771Z,1021.96
2017-04-21T08:01:43.387Z,1021.96
2017-04-21T08:02:43.988Z,1021.94
2017-04-21T08:03:44.604Z,1021.98
2017-04-21T08:04:45.228Z,1021.96
2017-04-21T08:05:45.895Z,1021.92
2017-04-21T08:06:46.499Z,1021.93
2017-04-21T08:07:47.111Z,1021.94
2017-04-21T08:08:47.733Z,1021.92
2017-04-21T08:09:48.334Z,1021.94
2017-04-21T08:10:48.947Z,1021.90
2017-04-21T08:11:49.567Z,1021.92
2017-04-21T08:12:50.174Z,1021.93
2017-04-21T08:13:50.794Z,1021.94
2017-04-21T08:14:51.413Z,1021.87
2017-04-21T08:15:52.182Z,1021.89
2017-04-21T08:16:52.700Z,1021.88
2017-04-21T08:17:53.317Z,1021.93
2017-04-21T08:18:53.930Z,1021.91
2017-04-21T08:19:54.543Z,1021.94
2017-04-21T08:20:55.150Z,1021.93
2017-04-21T08:21:55.775Z,1021.93
2017-04-21T08:22:56.398Z,1021.95
2017-04-21T08:23:57.003Z,1021.90
2017-04-21T08:24:57.624Z,1021.95
2017-04-21T08:25:58.231Z,1021.92
2017-04-21T08:26:58.897Z,1021.90
2017-04-21T08:27:59.461Z,1021.90
2017-04-21T08:29:00.078Z,1021.90
2017-04-21T08:30:00.682Z,1021.91
2017-04-21T08:31:01.339Z,1021.93
2017-04-21T08:32:01.945Z,1021.91
2017-04-21T08:33:02.551Z,1021.94
2017-04-21T08:34:03.174Z,1021.93
2017-04-21T08:35:03.851Z,1021.91
2017-04-21T08:36:04.523Z,1021.90
2017-04-21T08:37:05.143Z,1021.89
2017-04-21T08:38:05.755Z,1021.89
2017-04-21T08:39:06.356Z,1021.87
2017-04-21T08:40:06.972Z,1021.87
2017-04-21T08:41:07.639Z,1021.84
2017-04-21T08:42:08.265Z,1021.84
2017-04-21T08:43:08.879Z,1021.81
2017-04-21T08:44:09.496Z,1021.84
2017-04-21T08:45:10.118Z,1021.82
2017-04-21T08:46:10.778Z,1021.83
2017-04-21T08:47:11.392Z,1021.82
2017-04-21T08:48:12.000Z,1021.84
2017-04-21T08:49:12.626Z,1021.87
2017-04-21T08:50:13.237Z,1021.86
2017-04-21T08:51:13.905Z,1021.87
2017-04-21T08:52:14.511Z,1021.86
2017-04-21T08:53:15.116Z,1021.86
2017-04-21T08:54:15.737Z,1021.91
2017-04-21T08:55:16.356Z,1021.89
2017-04-21T08:56:16.956Z,1021.84
2017-04-21T08:57:17.561Z,1021.87
2017-04-21T08:58:18.169Z,1021.84
2017-04-21T08:59:18.790Z,1021.85
2017-04-21T09:00:19.412Z,1021.84
2017-04-21T09:01:20.027Z,1021.90
2017-04-21T09:02:20.635Z,1021.83
2017-04-21T09:03:21.254Z,1021.87
2017-04-21T09:04:21.856Z,1021.83
2017-04-21T09:05:22.517Z,1021.83
2017-04-21T09:06:23.134Z,1021.89
2017-04-21T09:07:23.753Z,1021.88
2017-04-21T09:08:24.370Z,1021.86
2017-04-21T09:09:24.989Z,1021.86
2017-04-21T09:10:25.605Z,1021.90
2017-04-21T09:11:26.224Z,1021.88
2017-04-21T09:12:26.844Z,1021.87
2017-04-21T09:13:27.459Z,1021.87
2017-04-21T09:14:28.077Z,1021.87
2017-04-21T09:15:28.729Z,1021.85
2017-04-21T09:16:29.346Z,1021.85
2017-04-21T09:17:29.955Z,1021.80
2017-04-21T09:18:30.570Z,1021.83
2017-04-21T09:19:31.174Z,1021.87
2017-04-21T09:20:31.846Z,1021.88
2017-04-21T09:21:32.461Z,1021.89
2017-04-21T09:22:33.230Z,1021.82
2017-04-21T09:23:33.832Z,1021.79
2017-04-21T09:24:34.447Z,1021.81
2017-04-21T09:25:35.051Z,1021.78
2017-04-21T09:26:35.669Z,1021.79
2017-04-21T09:27:36.275Z,1021.79
2017-04-21T09:28:36.894Z,1021.69
2017-04-21T09:29:37.635Z,1021.72
2017-04-21T09:30:38.257Z,1021.69
2017-04-21T09:31:39.853Z,1021.71
2017-04-21T09:32:40.462Z,1021.70
2017-04-21T09:33:42.058Z,1021.65
2017-04-21T09:34:43.657Z,1021.65
2017-04-21T09:36:17.884Z,1021.63
2017-04-21T09:36:46.854Z,1021.61
2017-04-21T09:37:47.484Z,1021.59
2017-04-21T09:38:49.079Z,1021.58
2017-04-21T09:39:49.692Z,1021.56
2017-04-21T09:40:50.295Z,1021.56
2017-04-21T09:41:50.915Z,1021.54
2017-04-21T09:43:03.870Z,1021.50
2017-04-21T09:43:53.124Z,1021.53
2017-04-21T09:44:53.744Z,1021.52
2017-04-21T09:45:54.356Z,1021.46
2017-04-21T09:46:54.971Z,1021.50
2017-04-21T09:47:55.590Z,1021.51
2017-04-21T09:48:56.204Z,1021.50
2017-04-21T09:49:56.823Z,1021.50
2017-04-21T09:50:57.604Z,1021.47
2017-04-21T09:53:34.120Z,1021.54
2017-04-21T09:53:46.297Z,1021.51
2017-04-21T09:54:01.418Z,1021.51
2017-04-21T09:57:06.052Z,1021.56
2017-04-21T09:57:26.029Z,1021.52
2017-04-21T09:57:36.149Z,1021.55
2017-04-21T10:01:22.008Z,1021.46
2017-04-21T10:04:00.322Z,1021.51
2017-04-21T10:05:03.879Z,1021.46
2017-04-21T10:05:11.599Z,1021.46
2017-04-21T10:06:19.760Z,1021.45
2017-04-21T10:07:40.482Z,1021.44
2017-04-21T10:07:53.002Z,1021.45
2017-04-21T10:07:56.695Z,1021.45
2017-04-21T10:07:57.253Z,1021.47
2017-04-21T10:08:22.019Z,1021.43
2017-04-21T10:08:23.842Z,1021.40
2017-04-21T10:09:25.441Z,1021.41
2017-04-21T10:10:26.060Z,1021.39
2017-04-21T10:11:26.719Z,1021.46
2017-04-21T10:12:27.340Z,1021.39
2017-04-21T10:13:27.949Z,1021.44
2017-04-21T10:14:28.568Z,1021.39
2017-04-21T10:15:29.175Z,1021.39
2017-04-21T10:16:29.848Z,1021.42
2017-04-21T10:17:30.468Z,1021.41
2017-04-21T10:18:31.093Z,1021.31
2017-04-21T10:19:31.703Z,1021.32
2017-04-21T10:20:32.322Z,1021.33
2017-04-21T10:21:32.944Z,1021.32
2017-04-21T10:22:33.552Z,1021.32
2017-04-21T10:23:34.183Z,1021.36
2017-04-21T10:24:34.791Z,1021.33
2017-04-21T10:25:35.410Z,1021.35
2017-04-21T10:26:36.069Z,1021.33
2017-04-21T10:27:36.687Z,1021.33
2017-04-21T10:28:37.306Z,1021.27
2017-04-21T10:29:37.925Z,1021.35
2017-04-21T10:30:38.544Z,1021.28
2017-04-21T10:31:39.162Z,1021.30
2017-04-21T10:32:39.792Z,1021.30
2017-04-21T10:33:40.413Z,1021.25
2017-04-21T10:34:41.023Z,1021.27
2017-04-21T10:35:41.648Z,1021.26
2017-04-21T10:36:42.324Z,1021.25
2017-04-21T10:37:42.942Z,1021.20
2017-04-21T10:38:43.565Z,1021.16
2017-04-21T10:39:44.469Z,1021.18
2017-04-21T10:40:45.086Z,1021.16
2017-04-21T10:41:45.746Z,1021.19
2017-04-21T10:42:46.367Z,1021.10
2017-04-21T10:43:46.972Z,1021.14
2017-04-21T10:44:47.582Z,1021.11
2017-04-21T10:45:48.191Z,1021.08
2017-04-21T10:46:48.797Z,1021.08
2017-04-21T10:47:49.413Z,1021.13
2017-04-21T10:48:50.031Z,1021.09
2017-04-21T10:49:50.650Z,1021.01
2017-04-21T10:50:51.474Z,1021.08
2017-04-21T10:51:52.149Z,1021.20
2017-04-21T10:52:52.769Z,1021.09
2017-04-21T10:53:53.391Z,1021.07
2017-04-21T10:54:54.010Z,1021.06
2017-04-21T10:55:54.627Z,1021.04
2017-04-21T10:56:55.243Z,1020.98
2017-04-21T10:57:55.859Z,1020.97
2017-04-21T10:58:56.484Z,1021.06
2017-04-21T10:59:57.096Z,1020.97
2017-04-21T11:00:57.705Z,1020.93
2017-04-21T11:01:58.325Z,1020.96
2017-04-21T11:02:58.948Z,1020.96
2017-04-21T11:03:59.564Z,1020.95
2017-04-21T11:05:00.177Z,1020.94
2017-04-21T11:06:00.790Z,1020.97
2017-04-21T11:07:01.465Z,1021.02
2017-04-21T11:08:02.078Z,1021.01
2017-04-21T11:09:02.694Z,1020.95
2017-04-21T11:10:03.324Z,1020.98
2017-04-21T11:11:03.932Z,1020.98
2017-04-21T11:12:04.598Z,1020.94
2017-04-21T11:13:05.210Z,1021.00
2017-04-21T11:14:05.828Z,1020.96
2017-04-21T11:15:06.443Z,1020.99
2017-04-21T11:16:07.056Z,1020.99
2017-04-21T11:17:07.736Z,1020.98
2017-04-21T11:18:08.367Z,1020.94
2017-04-21T11:19:08.985Z,1020.95
2017-04-21T11:20:09.605Z,1020.86
2017-04-21T11:21:10.219Z,1020.91
2017-04-21T11:22:10.895Z,1020.91
2017-04-21T11:23:11.529Z,1020.84
2017-04-21T11:24:12.141Z,1020.82
2017-04-21T11:25:12.769Z,1020.85
2017-04-21T11:26:13.382Z,1020.76
2017-04-21T11:27:14.007Z,1020.84
2017-04-21T11:28:14.636Z,1020.82
2017-04-21T11:29:15.244Z,1020.76
2017-04-21T11:30:15.859Z,1020.78
2017-04-21T11:31:16.486Z,1020.74
2017-04-21T11:32:17.150Z,1020.72
2017-04-21T11:33:17.768Z,1020.68
2017-04-21T11:34:18.393Z,1020.70
2017-04-21T11:35:19.025Z,1020.67
2017-04-21T11:36:19.651Z,1020.67
2017-04-21T11:37:20.263Z,1020.57
2017-04-21T11:38:20.876Z,1020.61
2017-04-21T11:39:21.501Z,1020.58
2017-04-21T11:40:22.121Z,1020.57
2017-04-21T11:41:22.748Z,1020.59
2017-04-21T11:42:23.416Z,1020.60
2017-04-21T11:43:24.048Z,1020.57
2017-04-21T11:44:24.665Z,1020.54
2017-04-21T11:45:25.284Z,1020.58
2017-04-21T11:46:25.894Z,1020.59
2017-04-21T11:47:26.515Z,1020.53
2017-04-21T11:48:27.225Z,1020.53
2017-04-21T11:49:27.853Z,1020.53
2017-04-21T11:50:28.603Z,1020.49
2017-04-21T11:51:29.225Z,1020.50
2017-04-21T11:52:29.837Z,1020.54
2017-04-21T11:53:30.447Z,1020.44
2017-04-21T11:54:31.075Z,1020.45
2017-04-21T11:55:31.696Z,1020.39
2017-04-21T11:56:32.321Z,1020.41
2017-04-21T11:57:32.994Z,1020.42
2017-04-21T11:58:33.614Z,1020.49
2017-04-21T11:59:34.239Z,1020.42
2017-04-21T12:00:34.869Z,1020.43
2017-04-21T12:01:35.498Z,1020.38
2017-04-21T12:02:36.112Z,1020.39
2017-04-21T12:03:36.730Z,1020.37
2017-04-21T12:04:37.350Z,1020.42
2017-04-21T12:05:37.981Z,1020.33
2017-04-21T12:06:38.600Z,1020.34
2017-04-21T12:07:39.221Z,1020.33
2017-04-21T12:08:39.832Z,1020.25
2017-04-21T12:09:40.455Z,1020.27
2017-04-21T12:10:41.079Z,1020.34
2017-04-21T12:11:41.699Z,1020.29
2017-04-21T12:12:42.306Z,1020.28
2017-04-21T12:13:42.928Z,1020.25